Aeroporto :
LOGIN :

Iscrizione | Disclaimer

   EN    FR    IT 

 










Sommario :    VFR   VFR Marginale   IFR   IFR Intensivo   IFR Molto Intensivo
Visibilità : 
Base nubi : 
>= 8 km
>= 3000ft
5 / 8 km
1000 / 3000 ft
1500m / 5 km
500 / 1000 ft
800 / 1500m
200 / 500 ft
< 800m
< 200 ft
Simboli :   Temporali  Nebbia  Neve Forte  Precipitazioni Forti  Vento > 20 kt
SIGMETs :   Varie  Temporali  Ghiacco  Turbolenza  Onda orograficha  Ceneri Vulcaniche






- Altitudine del aeroporto : 1830 ft


EBLB - Butgenbach Elsenborn

ULTIMO METAR :
  • 191255Z 25003KT 9999 FEW008 SCT015 BKN025 02/01 Q1016 WHT BLU TEMPO GRN

METARs OBSOLETI :
  • 191235Z 27003KT 9999 FEW008 SCT015 BKN025 02/01 Q1016 WHT BLU TEMPO GRN
  • 191225Z 26004KT 9999 FEW004 SCT008 BKN012 02/01 Q1016 GRN WHT TEMPO YLO
  • 191155Z 28003KT 9999 FEW003 SCT007 BKN010 02/01 Q1016 GRN WHT TEMPO YLO
  • 191125Z 27004KT 9999 FEW003 BKN007 BKN010 02/01 Q1016 GRN WHT TEMPO YLO
  • 191113Z 28005KT 9000 FEW003 BKN007 BKN010 02/01 Q1016 GRN WHT TEMPO YLO
  • 191055Z 29004KT 9000 FEW003 BKN006 01/01 Q1016 YLO GRN TEMPO YLO
  • 191025Z 27005KT 9000 FEW003 BKN006 02/01 Q1016 YLO GRN TEMPO YLO
  • 191006Z 27005KT 4000 -RASN SCT003 BKN006 02/01 Q1016 YLO GRN TEMPO YLO

TAF TAF EBLB
Valido dal 19 a 13 ore il 19 a 22 ore UTC


191141Z 1913/1922 28005KT 9999 SCT007 BKN013
BECMG 1913/1915 VRB03KT 9999 FEW007 SCT015
PROB30
TEMPO 1913/1916 3000 -SHRASN FEW005 SCT010
TEMPO 1917/1919 5000 BR
BECMG 1919/1921 VRB01KT FEW007 SCT040



MetMap, La meteo Aeronautica in un colpo d'occhio ! - Copyright ORBIFLY Dicembre 2007 - Disclaimer

ORBIFLY MET'MAP TEAM :

Programmazione e sviluppo : Alexandra Zaïnal
Concezione e sviluppo : Baudouin d'Aumeries
Co-Programmazione e sviluppo : Marc-Olivier Méhu
Supporto tecnico e logistico : Manuel Goepfert
Aiuto per la traduzione : Arnaldo La Scala

Contatto : metmap@orbifly.com




FONTI E CREDITI :

   NOAA